Time;durP1;ratioP1;P1;durP2;ratioP2;P2;SDS_P1;SDS_P2;PMS_P1;PMS_P2;Temp;Humidity;BMP_temperature;BMP_pressure;BME280_temperature;BME280_humidity;BME280_pressure;Samples;Min_cycle;Max_cycle;Signal;HPM_P1;HPM_P2
2023/02/06 00:01:26;;;;;;;25.73;12.43;;;2.60;99.90;;;;;;5045397;28;20041;-71
2023/02/06 00:03:53;;;;;;;31.67;13.50;;;2.70;99.90;;;;;;5047505;28;20127;-71
2023/02/06 00:06:20;;;;;;;27.67;13.75;;;2.70;99.90;;;;;;5044695;28;20025;-72
2023/02/06 00:08:47;;;;;;;29.25;13.65;;;2.50;99.90;;;;;;5023662;28;20102;-72
2023/02/06 00:11:18;;;;;;;36.10;19.88;;;2.40;99.90;;;;;;5044749;28;20037;-72
2023/02/06 00:13:45;;;;;;;27.08;14.25;;;2.30;99.90;;;;;;5024232;28;20499;-71
2023/02/06 00:16:24;;;;;;;32.17;16.70;;;2.20;99.90;;;;;;5044196;28;21404;-72
2023/02/06 00:18:52;;;;;;;29.92;16.05;;;2.20;99.90;;;;;;5019923;28;20037;-72
2023/02/06 00:21:20;;;;;;;31.95;16.00;;;1.90;99.90;;;;;;5041941;28;20525;-72
2023/02/06 00:23:48;;;;;;;31.33;17.17;;;1.90;99.90;;;;;;5021233;28;20029;-72
2023/02/06 00:26:14;;;;;;;35.90;17.15;;;1.90;99.90;;;;;;5029321;28;20041;-71
2023/02/06 00:28:41;;;;;;;40.28;19.17;;;1.80;99.90;;;;;;5043097;28;21562;-72
2023/02/06 00:31:08;;;;;;;28.88;15.63;;;1.60;99.90;;;;;;5039880;28;20036;-71
2023/02/06 00:33:36;;;;;;;30.92;16.20;;;1.50;99.90;;;;;;5027328;28;20499;-71
2023/02/06 00:36:04;;;;;;;30.98;16.65;;;1.50;99.90;;;;;;5022965;28;20037;-73
2023/02/06 00:38:31;;;;;;;33.60;18.05;;;1.60;99.90;;;;;;5044018;28;20059;-71
2023/02/06 00:40:58;;;;;;;35.17;17.70;;;1.60;99.90;;;;;;5026941;28;20403;-72
2023/02/06 00:43:25;;;;;;;30.60;16.02;;;1.70;99.90;;;;;;5034779;28;20590;-74
2023/02/06 00:45:56;;;;;;;27.27;14.40;;;1.60;99.90;;;;;;5040383;28;20044;-71
2023/02/06 00:48:23;;;;;;;20.88;11.95;;;1.60;99.90;;;;;;5041485;28;20049;-71
2023/02/06 00:50:51;;;;;;;24.45;11.88;;;1.60;99.90;;;;;;5034350;28;20051;-71
2023/02/06 00:53:18;;;;;;;26.85;12.80;;;1.50;99.90;;;;;;5026492;28;20503;-71
2023/02/06 00:55:45;;;;;;;27.27;13.57;;;1.50;99.90;;;;;;5024741;28;20044;-72
2023/02/06 00:58:12;;;;;;;29.75;13.80;;;1.60;99.90;;;;;;5018455;28;20127;-71
2023/02/06 01:00:42;;;;;;;27.05;14.10;;;1.50;99.90;;;;;;5039730;28;20049;-72
2023/02/06 01:03:09;;;;;;;28.23;14.05;;;1.60;99.90;;;;;;5026525;28;20461;-71
2023/02/06 01:05:36;;;;;;;33.05;16.05;;;1.60;99.90;;;;;;5002760;28;20043;-71
2023/02/06 01:08:03;;;;;;;38.15;16.77;;;1.70;99.90;;;;;;5012733;28;20541;-71
2023/02/06 01:10:30;;;;;;;37.15;17.67;;;1.60;99.90;;;;;;5022024;28;20193;-71
2023/02/06 01:12:57;;;;;;;39.53;19.58;;;1.70;99.90;;;;;;5019390;28;20037;-71
2023/02/06 01:15:24;;;;;;;43.25;20.35;;;1.70;99.90;;;;;;5030079;28;20503;-71
2023/02/06 01:17:51;;;;;;;53.55;21.35;;;1.70;99.90;;;;;;5019183;28;20041;-72
2023/02/06 01:20:18;;;;;;;56.05;22.83;;;1.70;99.90;;;;;;5043667;28;20637;-72
2023/02/06 01:22:44;;;;;;;56.85;24.00;;;1.70;99.90;;;;;;5048308;28;20507;-71
2023/02/06 01:25:11;;;;;;;57.58;24.10;;;1.70;99.90;;;;;;5046129;28;20060;-71
2023/02/06 01:27:38;;;;;;;60.40;23.63;;;1.70;99.90;;;;;;5024052;28;20048;-72
2023/02/06 01:30:06;;;;;;;57.47;25.00;;;1.60;99.90;;;;;;5046244;28;20058;-72
2023/02/06 01:32:40;;;;;;;59.85;25.35;;;1.60;99.90;;;;;;5052428;28;20062;-71
2023/02/06 01:35:09;;;;;;;54.67;25.42;;;1.60;99.90;;;;;;5049203;28;20417;-71
2023/02/06 01:37:37;;;;;;;52.33;24.75;;;1.70;99.90;;;;;;5032631;28;20128;-74
2023/02/06 01:40:08;;;;;;;58.70;24.75;;;1.70;99.90;;;;;;5028138;28;20110;-72
2023/02/06 01:42:36;;;;;;;59.78;25.30;;;1.60;99.90;;;;;;5026849;28;20475;-72
2023/02/06 01:45:24;;;;;;;57.90;24.23;;;1.50;99.90;;;;;;5032616;28;20135;-72
2023/02/06 01:48:01;;;;;;;56.63;25.20;;;1.50;99.90;;;;;;5022164;28;20048;-72
2023/02/06 01:50:32;;;;;;;55.92;24.92;;;1.50;99.90;;;;;;5020771;28;20076;-71
2023/02/06 01:52:59;;;;;;;61.88;25.90;;;1.30;99.90;;;;;;5034694;28;20095;-73
2023/02/06 01:55:26;;;;;;;65.15;27.08;;;1.20;99.90;;;;;;5025570;28;20047;-73
2023/02/06 01:57:53;;;;;;;65.70;26.15;;;1.30;99.90;;;;;;5075071;28;20029;-72
2023/02/06 02:00:20;;;;;;;69.65;28.40;;;1.20;99.90;;;;;;5048736;28;20551;-72
2023/02/06 02:02:48;;;;;;;57.20;26.70;;;1.20;99.90;;;;;;5049687;28;20159;-71
2023/02/06 02:05:17;;;;;;;66.72;25.73;;;1.20;99.90;;;;;;5038295;28;20107;-72
2023/02/06 02:07:49;;;;;;;70.65;28.92;;;1.10;99.90;;;;;;5037730;28;21080;-74
2023/02/06 02:10:16;;;;;;;73.47;29.00;;;1.10;99.90;;;;;;5028151;28;20068;-73
2023/02/06 02:12:43;;;;;;;72.57;28.98;;;1.20;99.90;;;;;;5025942;28;20861;-74
2023/02/06 02:15:10;;;;;;;72.28;27.98;;;1.30;99.90;;;;;;5012241;28;20058;-74
2023/02/06 02:18:01;;;;;;;70.15;27.92;;;1.30;99.90;;;;;;5020036;28;20048;-74
2023/02/06 02:20:59;;;;;;;70.55;29.70;;;1.40;99.90;;;;;;5037438;28;20234;-74
2023/02/06 02:23:36;;;;;;;71.47;26.52;;;1.20;99.90;;;;;;5039719;28;20198;-74
2023/02/06 02:26:28;;;;;;;83.05;29.35;;;1.10;99.90;;;;;;5039257;28;20197;-74
2023/02/06 02:29:32;;;;;;;68.20;27.27;;;1.30;99.90;;;;;;5027493;28;20044;-74
2023/02/06 02:32:09;;;;;;;63.10;27.52;;;1.30;99.90;;;;;;5027287;28;20032;-74
2023/02/06 02:35:14;;;;;;;76.18;27.27;;;1.40;99.90;;;;;;5030233;28;20047;-74
2023/02/06 02:38:23;;;;;;;68.82;25.77;;;1.40;99.90;;;;;;5023615;28;20177;-74
2023/02/06 02:41:11;;;;;;;66.05;27.25;;;1.50;99.90;;;;;;5005092;28;20055;-73
2023/02/06 02:43:43;;;;;;;70.22;27.60;;;1.40;99.90;;;;;;5038141;28;20447;-74
2023/02/06 02:46:22;;;;;;;77.50;29.30;;;1.50;99.90;;;;;;5017900;28;20149;-74
2023/02/06 02:48:52;;;;;;;73.75;28.08;;;1.50;99.90;;;;;;5035177;28;20071;-74
2023/02/06 02:51:19;;;;;;;63.42;27.23;;;1.50;99.90;;;;;;5026706;28;20526;-74
2023/02/06 02:53:46;;;;;;;70.50;29.48;;;1.60;99.90;;;;;;5020387;28;20037;-73
2023/02/06 02:56:21;;;;;;;72.53;28.67;;;1.70;99.90;;;;;;5022689;28;20550;-72
2023/02/06 02:58:58;;;;;;;69.32;27.25;;;1.70;99.90;;;;;;5041624;28;20507;-72
2023/02/06 03:01:33;;;;;;;67.68;27.35;;;1.70;99.90;;;;;;5027773;28;20037;-74
2023/02/06 03:04:07;;;;;;;65.50;27.00;;;1.80;99.90;;;;;;5021345;28;20504;-72
2023/02/06 03:06:43;;;;;;;62.28;26.63;;;1.80;99.90;;;;;;5043886;28;20649;-73
2023/02/06 03:09:38;;;;;;;59.65;28.05;;;1.80;99.90;;;;;;5021015;28;20512;-74
2023/02/06 03:12:22;;;;;;;58.42;25.40;;;1.90;99.90;;;;;;5038612;28;20036;-72
2023/02/06 03:14:55;;;;;;;59.60;25.95;;;1.80;99.90;;;;;;5023678;28;20213;-75
2023/02/06 03:17:45;;;;;;;52.97;24.02;;;1.80;99.90;;;;;;5025159;28;20544;-71
2023/02/06 03:20:13;;;;;;;52.42;24.30;;;1.80;99.90;;;;;;5022819;28;20473;-72
2023/02/06 03:22:42;;;;;;;55.45;26.65;;;1.70;99.90;;;;;;5018592;28;20499;-72
2023/02/06 03:25:13;;;;;;;59.55;27.02;;;1.70;99.90;;;;;;5041989;28;20041;-72
2023/02/06 03:27:42;;;;;;;59.45;25.75;;;1.90;99.90;;;;;;5050741;28;20044;-72
2023/02/06 03:30:12;;;;;;;60.10;26.83;;;1.80;99.90;;;;;;5048197;28;20110;-72
2023/02/06 03:32:41;;;;;;;55.88;27.27;;;1.80;99.90;;;;;;5044179;28;20444;-74
2023/02/06 03:35:11;;;;;;;64.20;26.40;;;1.80;99.90;;;;;;5024078;28;20044;-74
2023/02/06 03:37:38;;;;;;;58.15;25.02;;;1.80;99.90;;;;;;5049403;28;20041;-75
2023/02/06 03:40:06;;;;;;;59.67;27.00;;;1.80;99.90;;;;;;5026524;28;20048;-73
2023/02/06 03:42:37;;;;;;;55.28;28.38;;;2.00;99.90;;;;;;5015927;28;20103;-73
2023/02/06 03:45:14;;;;;;;69.15;30.52;;;2.10;99.90;;;;;;5047235;28;20184;-73
2023/02/06 03:47:43;;;;;;;65.47;33.67;;;2.00;99.90;;;;;;5022122;28;20227;-75
2023/02/06 03:50:12;;;;;;;75.55;33.13;;;2.00;99.90;;;;;;5047628;28;20048;-72
2023/02/06 03:52:45;;;;;;;84.57;33.70;;;2.00;99.90;;;;;;5017172;28;20044;-72
2023/02/06 03:55:16;;;;;;;79.28;33.58;;;2.00;99.90;;;;;;5041256;28;20140;-75
2023/02/06 03:57:48;;;;;;;82.97;34.33;;;2.00;99.90;;;;;;5049009;28;21051;-72
2023/02/06 04:00:15;;;;;;;87.80;34.67;;;2.00;99.90;;;;;;5045200;28;20469;-72
2023/02/06 04:02:46;;;;;;;90.55;34.75;;;1.90;99.90;;;;;;5026312;28;20029;-75
2023/02/06 04:05:15;;;;;;;92.85;33.92;;;2.00;99.90;;;;;;5055690;22;20421;-73
2023/02/06 04:07:42;;;;;;;84.95;34.67;;;1.90;99.90;;;;;;5051740;28;21021;-72
2023/02/06 04:10:09;;;;;;;91.15;35.00;;;1.90;99.90;;;;;;5054697;28;20045;-72
2023/02/06 04:12:36;;;;;;;96.20;35.88;;;1.90;99.90;;;;;;5035057;28;20422;-73
2023/02/06 04:15:03;;;;;;;89.28;32.65;;;1.90;99.90;;;;;;5046527;28;20518;-73
2023/02/06 04:17:31;;;;;;;76.63;31.10;;;1.90;99.90;;;;;;5034588;28;20409;-72
2023/02/06 04:20:18;;;;;;;93.57;32.63;;;1.80;99.90;;;;;;5002440;28;20063;-73
2023/02/06 04:22:45;;;;;;;81.38;29.92;;;1.80;99.90;;;;;;5034889;28;20064;-73
2023/02/06 04:25:12;;;;;;;73.78;27.05;;;1.80;99.90;;;;;;5001759;28;20084;-72
2023/02/06 04:27:39;;;;;;;81.68;29.27;;;1.80;99.90;;;;;;5036619;28;20480;-72
2023/02/06 04:30:06;;;;;;;77.45;30.85;;;1.80;99.90;;;;;;5019170;28;20415;-73
2023/02/06 04:32:35;;;;;;;87.00;30.30;;;1.80;99.90;;;;;;5037623;28;20044;-73
2023/02/06 04:35:02;;;;;;;79.07;27.48;;;1.80;99.90;;;;;;5018390;28;20051;-72
2023/02/06 04:37:28;;;;;;;83.18;29.98;;;1.70;99.90;;;;;;5034544;28;20045;-73
2023/02/06 04:39:55;;;;;;;96.18;32.15;;;1.70;99.90;;;;;;5036688;28;20426;-73
2023/02/06 04:42:22;;;;;;;91.07;29.98;;;1.70;99.90;;;;;;5018796;28;20048;-73
2023/02/06 04:44:49;;;;;;;91.60;28.27;;;1.70;99.90;;;;;;4998825;28;20645;-73
2023/02/06 04:47:16;;;;;;;94.78;29.88;;;1.70;99.90;;;;;;5018578;28;20061;-73
2023/02/06 04:49:42;;;;;;;94.63;28.95;;;1.70;99.90;;;;;;5035731;28;20652;-73
2023/02/06 04:52:09;;;;;;;63.97;23.33;;;1.60;99.90;;;;;;5035098;28;20514;-72
2023/02/06 04:54:36;;;;;;;83.43;26.23;;;1.70;99.90;;;;;;5018153;28;20507;-73
2023/02/06 04:57:03;;;;;;;76.10;27.20;;;1.70;99.90;;;;;;5034976;28;20519;-73
2023/02/06 04:59:29;;;;;;;82.05;25.40;;;1.70;99.90;;;;;;5039927;28;20035;-73
2023/02/06 05:01:56;;;;;;;62.97;21.85;;;1.80;99.90;;;;;;5023427;28;20585;-73
2023/02/06 05:04:23;;;;;;;69.80;22.90;;;1.70;99.90;;;;;;5003992;28;20487;-72
2023/02/06 05:06:50;;;;;;;69.50;21.88;;;1.60;99.90;;;;;;5021246;28;20132;-72
2023/02/06 05:09:16;;;;;;;74.38;24.02;;;1.60;99.90;;;;;;5041147;28;20048;-72
2023/02/06 05:11:43;;;;;;;77.53;22.15;;;1.50;99.90;;;;;;5021144;28;20429;-72
2023/02/06 05:14:10;;;;;;;80.10;24.63;;;1.40;99.90;;;;;;5039063;28;20128;-74
2023/02/06 05:16:37;;;;;;;67.55;22.30;;;1.30;99.90;;;;;;5038391;28;20403;-72
2023/02/06 05:19:03;;;;;;;79.80;22.83;;;1.30;99.90;;;;;;5022397;28;20496;-73
2023/02/06 05:21:30;;;;;;;82.90;25.52;;;1.40;99.90;;;;;;5019571;28;20061;-75
2023/02/06 05:23:56;;;;;;;78.63;23.17;;;1.40;99.90;;;;;;5039971;28;20049;-72
2023/02/06 05:26:23;;;;;;;84.30;23.55;;;1.50;99.90;;;;;;5039251;28;20040;-72
2023/02/06 05:28:50;;;;;;;79.30;24.63;;;1.40;99.90;;;;;;5004584;28;20400;-72
2023/02/06 05:31:18;;;;;;;82.18;23.92;;;1.40;99.90;;;;;;5026767;28;20511;-72
2023/02/06 05:33:47;;;;;;;75.47;24.88;;;1.50;99.90;;;;;;5039932;28;20051;-72
2023/02/06 05:36:18;;;;;;;95.65;26.83;;;1.50;99.90;;;;;;5018396;28;20049;-72
2023/02/06 05:38:46;;;;;;;80.22;24.67;;;1.40;99.90;;;;;;5039012;28;20053;-72
2023/02/06 05:41:13;;;;;;;90.18;24.88;;;1.50;99.90;;;;;;5039476;28;20522;-72
2023/02/06 05:43:40;;;;;;;78.82;25.13;;;1.40;99.90;;;;;;5040368;28;20106;-72
2023/02/06 05:46:07;;;;;;;76.03;23.10;;;1.40;99.90;;;;;;5037001;28;20552;-72
2023/02/06 05:48:34;;;;;;;91.68;24.13;;;1.40;99.90;;;;;;5020271;28;20051;-72
2023/02/06 05:51:01;;;;;;;73.60;23.20;;;1.40;99.90;;;;;;5039058;28;20029;-75
2023/02/06 05:53:28;;;;;;;75.95;23.52;;;1.40;99.90;;;;;;5037792;28;20128;-74
2023/02/06 05:55:55;;;;;;;66.00;22.77;;;1.40;99.90;;;;;;5039004;28;20040;-74
2023/02/06 05:58:22;;;;;;;76.32;22.70;;;1.40;99.90;;;;;;5041226;28;20051;-74
2023/02/06 06:00:48;;;;;;;82.78;24.55;;;1.20;99.90;;;;;;5017920;28;20052;-74
2023/02/06 06:03:15;;;;;;;79.28;22.30;;;1.30;99.90;;;;;;5020549;28;20588;-74
2023/02/06 06:05:42;;;;;;;70.93;25.13;;;1.30;99.90;;;;;;5020469;28;20140;-74
2023/02/06 06:08:08;;;;;;;80.53;25.05;;;1.30;99.90;;;;;;5018044;28;20457;-73
2023/02/06 06:10:35;;;;;;;85.40;23.27;;;1.30;99.90;;;;;;5020136;28;20056;-73
2023/02/06 06:13:02;;;;;;;64.10;23.50;;;1.20;99.90;;;;;;5020766;28;20049;-73
2023/02/06 06:15:29;;;;;;;70.10;22.35;;;1.10;99.90;;;;;;5037621;28;20285;-73
2023/02/06 06:17:55;;;;;;;73.57;23.88;;;1.10;99.90;;;;;;5038559;28;20136;-73
2023/02/06 06:20:22;;;;;;;86.78;26.98;;;1.10;99.90;;;;;;5038521;28;20037;-72
2023/02/06 06:22:49;;;;;;;71.97;25.73;;;1.10;99.90;;;;;;5038438;28;20040;-74
2023/02/06 06:25:16;;;;;;;76.00;24.73;;;1.10;99.90;;;;;;5037720;28;20051;-73
2023/02/06 06:27:42;;;;;;;78.70;25.05;;;1.10;99.90;;;;;;5038216;28;20502;-73
2023/02/06 06:30:10;;;;;;;94.45;26.38;;;1.10;99.90;;;;;;5021543;28;20494;-73
2023/02/06 06:32:36;;;;;;;91.13;29.33;;;1.20;99.90;;;;;;5018234;28;20059;-73
2023/02/06 06:35:03;;;;;;;102.85;31.30;;;1.30;99.90;;;;;;5037591;28;20049;-73
2023/02/06 06:37:30;;;;;;;97.68;30.88;;;1.30;99.90;;;;;;5019372;28;20419;-73
2023/02/06 06:39:57;;;;;;;97.35;28.48;;;1.10;99.90;;;;;;5038146;28;20444;-73
2023/02/06 06:42:24;;;;;;;83.97;28.00;;;1.10;99.90;;;;;;5002294;28;20251;-73
2023/02/06 06:44:51;;;;;;;90.72;28.67;;;1.20;99.90;;;;;;5034260;28;20044;-73
2023/02/06 06:47:17;;;;;;;99.25;30.10;;;1.20;99.90;;;;;;5019497;28;20041;-73
2023/02/06 06:49:44;;;;;;;81.53;26.67;;;1.20;99.90;;;;;;5037440;28;20336;-73
2023/02/06 06:52:11;;;;;;;101.93;30.50;;;1.20;99.90;;;;;;5018009;28;20053;-73
2023/02/06 06:54:50;;;;;;;102.93;30.20;;;1.00;99.90;;;;;;5019205;28;20045;-73
2023/02/06 06:57:18;;;;;;;93.82;30.58;;;1.00;99.90;;;;;;5036388;28;20049;-73
2023/02/06 06:59:45;;;;;;;92.25;27.77;;;1.00;99.90;;;;;;5019307;28;20048;-73
2023/02/06 07:02:13;;;;;;;96.00;29.17;;;1.00;99.90;;;;;;5005271;28;20038;-73
2023/02/06 07:04:40;;;;;;;83.05;26.65;;;1.00;99.90;;;;;;5017600;28;20533;-73
2023/02/06 07:07:07;;;;;;;85.63;27.55;;;0.90;99.90;;;;;;5019499;28;20085;-73
2023/02/06 07:09:34;;;;;;;83.88;26.40;;;0.90;99.90;;;;;;5035445;28;20095;-73
2023/02/06 07:12:00;;;;;;;102.15;27.38;;;0.90;99.90;;;;;;5018623;28;20056;-73
2023/02/06 07:14:27;;;;;;;77.40;26.25;;;0.90;99.90;;;;;;5017724;28;20098;-72
2023/02/06 07:16:55;;;;;;;90.57;26.60;;;0.80;99.90;;;;;;5036586;28;20144;-73
2023/02/06 07:19:21;;;;;;;97.13;28.55;;;0.80;99.90;;;;;;5019589;28;20045;-73
2023/02/06 07:21:48;;;;;;;81.20;26.48;;;0.90;99.90;;;;;;5015542;28;20061;-73
2023/02/06 07:24:15;;;;;;;84.05;26.50;;;0.80;99.90;;;;;;5019567;28;20037;-73
2023/02/06 07:26:42;;;;;;;89.07;26.88;;;0.80;99.90;;;;;;5018849;28;20040;-72
2023/02/06 07:29:08;;;;;;;86.95;26.70;;;0.90;99.90;;;;;;5036676;28;20037;-73
2023/02/06 07:31:35;;;;;;;76.75;25.08;;;0.90;99.90;;;;;;5035055;28;20045;-73
2023/02/06 07:34:02;;;;;;;86.72;29.17;;;0.90;99.90;;;;;;5034201;28;20087;-73
2023/02/06 07:36:28;;;;;;;116.22;30.48;;;0.90;99.90;;;;;;5035851;28;20136;-73
2023/02/06 07:38:55;;;;;;;88.00;28.67;;;1.00;99.90;;;;;;5018751;28;20033;-73
2023/02/06 07:41:22;;;;;;;97.47;29.33;;;1.00;99.90;;;;;;5019645;28;20045;-73
2023/02/06 07:43:48;;;;;;;100.40;29.00;;;1.00;99.90;;;;;;5035953;28;20495;-73
2023/02/06 07:46:15;;;;;;;101.28;30.50;;;1.00;99.90;;;;;;5019768;28;20056;-73
2023/02/06 07:48:42;;;;;;;103.95;31.95;;;1.00;99.90;;;;;;5019357;28;20056;-73
2023/02/06 07:51:09;;;;;;;85.68;29.02;;;1.00;99.90;;;;;;5019763;28;20076;-73
2023/02/06 07:53:36;;;;;;;106.18;30.25;;;1.00;99.90;;;;;;5018854;28;20049;-73
2023/02/06 07:56:15;;;;;;;91.80;29.15;;;1.10;99.90;;;;;;5036695;28;20044;-73
2023/02/06 07:58:42;;;;;;;105.28;31.40;;;1.10;99.90;;;;;;5036406;28;20051;-72
2023/02/06 08:01:09;;;;;;;101.07;28.35;;;1.20;99.90;;;;;;5018887;28;20048;-73
2023/02/06 08:03:36;;;;;;;87.47;28.70;;;1.10;99.90;;;;;;5018172;28;20052;-72
2023/02/06 08:06:11;;;;;;;84.00;25.33;;;1.10;99.90;;;;;;5019985;28;20403;-73
2023/02/06 08:08:38;;;;;;;97.70;29.77;;;1.20;99.90;;;;;;5018096;28;20053;-74
2023/02/06 08:11:10;;;;;;;77.00;26.77;;;1.20;99.90;;;;;;5037308;28;20033;-74
2023/02/06 08:13:37;;;;;;;83.82;26.70;;;1.20;99.90;;;;;;5022798;28;20140;-73
2023/02/06 08:16:05;;;;;;;79.05;25.65;;;1.10;99.90;;;;;;5041491;28;20048;-74
2023/02/06 08:18:32;;;;;;;74.15;24.35;;;1.20;99.90;;;;;;5043465;28;20349;-73
2023/02/06 08:21:04;;;;;;;74.53;24.90;;;1.30;99.90;;;;;;5048837;28;20037;-73
2023/02/06 08:23:31;;;;;;;90.97;25.50;;;1.30;99.90;;;;;;5053635;28;20079;-73
2023/02/06 08:26:15;;;;;;;78.43;28.20;;;1.30;99.90;;;;;;5053965;28;20423;-73
2023/02/06 08:28:44;;;;;;;85.10;30.10;;;1.20;99.90;;;;;;5053449;28;20060;-73
2023/02/06 08:31:17;;;;;;;83.68;27.50;;;1.40;99.90;;;;;;5051178;28;20048;-73
2023/02/06 08:33:44;;;;;;;87.00;28.73;;;1.40;99.90;;;;;;5041171;28;20080;-74
2023/02/06 08:36:12;;;;;;;82.25;26.33;;;1.50;99.90;;;;;;5039497;28;20048;-74
2023/02/06 08:38:39;;;;;;;85.43;30.42;;;1.50;99.90;;;;;;5020557;28;20126;-73
2023/02/06 08:41:17;;;;;;;80.57;28.75;;;1.50;99.90;;;;;;5021872;28;20067;-73
2023/02/06 08:43:45;;;;;;;74.32;29.25;;;1.60;99.90;;;;;;5038930;28;20033;-73
2023/02/06 08:46:12;;;;;;;90.40;27.38;;;1.50;99.90;;;;;;5019245;28;20045;-73
2023/02/06 08:48:39;;;;;;;81.15;27.50;;;1.60;99.90;;;;;;5018806;28;20327;-73
2023/02/06 08:51:07;;;;;;;96.65;29.23;;;1.50;99.90;;;;;;5020077;28;20045;-73
2023/02/06 08:53:35;;;;;;;97.00;27.98;;;1.60;99.90;;;;;;5038603;28;20049;-73
2023/02/06 08:56:05;;;;;;;84.93;27.88;;;1.60;99.90;;;;;;5038101;28;20045;-73
2023/02/06 08:58:32;;;;;;;68.80;25.02;;;1.60;99.90;;;;;;5037194;28;20041;-73
2023/02/06 09:01:08;;;;;;;64.20;25.27;;;1.70;99.90;;;;;;5018335;28;20045;-73
2023/02/06 09:03:35;;;;;;;65.22;22.73;;;1.60;99.90;;;;;;5018373;28;20056;-74
2023/02/06 09:06:03;;;;;;;77.85;26.05;;;1.60;99.90;;;;;;5036661;28;20515;-73
2023/02/06 09:08:37;;;;;;;67.80;27.30;;;1.60;99.90;;;;;;5037798;28;20084;-73
2023/02/06 09:11:12;;;;;;;58.88;22.90;;;1.70;99.90;;;;;;5020204;28;20597;-73
2023/02/06 09:13:39;;;;;;;74.00;25.52;;;1.80;99.90;;;;;;5020159;28;20059;-73
2023/02/06 09:16:06;;;;;;;63.38;24.92;;;1.80;99.90;;;;;;5021376;28;20143;-73
2023/02/06 09:18:34;;;;;;;73.57;23.92;;;1.70;99.90;;;;;;5037802;28;20099;-73
2023/02/06 09:21:16;;;;;;;64.18;25.75;;;1.60;99.90;;;;;;5021707;28;20045;-74
2023/02/06 09:23:45;;;;;;;85.05;26.63;;;1.70;99.90;;;;;;5018600;28;20553;-73
2023/02/06 09:26:15;;;;;;;77.50;25.40;;;1.70;99.90;;;;;;5016637;28;20052;-73
2023/02/06 09:28:41;;;;;;;56.28;23.08;;;1.90;99.90;;;;;;5019140;28;20032;-72
2023/02/06 09:31:09;;;;;;;65.13;24.67;;;1.90;99.90;;;;;;5038219;28;20045;-73
2023/02/06 09:33:38;;;;;;;78.57;24.48;;;1.80;99.90;;;;;;5019665;28;20041;-73
2023/02/06 09:36:13;;;;;;;68.63;22.88;;;1.80;99.90;;;;;;5037437;28;20068;-73
2023/02/06 09:38:45;;;;;;;60.00;23.65;;;1.90;99.90;;;;;;5018427;28;20057;-73
2023/02/06 09:41:15;;;;;;;60.75;21.50;;;1.80;99.90;;;;;;5033692;28;20080;-74
2023/02/06 09:44:02;;;;;;;68.05;24.75;;;1.90;99.90;;;;;;5035404;28;20067;-73
2023/02/06 09:46:33;;;;;;;74.68;25.27;;;1.80;99.90;;;;;;5042805;28;20072;-73
2023/02/06 09:49:09;;;;;;;69.60;24.90;;;2.00;99.90;;;;;;5037347;28;20037;-73
2023/02/06 09:51:41;;;;;;;68.60;25.27;;;2.10;99.90;;;;;;5018737;28;20564;-73
2023/02/06 09:54:38;;;;;;;67.28;24.08;;;2.30;99.90;;;;;;5048583;28;20067;-73
2023/02/06 09:57:30;;;;;;;59.00;24.23;;;2.30;99.90;;;;;;5028257;28;20663;-73
2023/02/06 09:59:59;;;;;;;66.35;24.05;;;2.30;99.90;;;;;;5027040;28;20461;-73
2023/02/06 10:02:31;;;;;;;61.88;24.15;;;2.30;99.90;;;;;;5035449;28;20041;-74
2023/02/06 10:05:17;;;;;;;66.47;25.45;;;2.40;99.90;;;;;;5069172;22;20503;-78
2023/02/06 10:07:58;;;;;;;70.43;26.70;;;2.40;99.90;;;;;;5058073;28;20163;-76
2023/02/06 10:10:44;;;;;;;64.95;24.33;;;2.30;99.90;;;;;;5054041;28;20060;-74
2023/02/06 10:13:15;;;;;;;70.90;25.50;;;2.20;99.90;;;;;;5028853;28;20056;-76
2023/02/06 10:15:48;;;;;;;70.22;26.60;;;2.20;99.90;;;;;;5033038;28;20048;-75
2023/02/06 10:18:49;;;;;;;72.78;26.15;;;2.20;99.90;;;;;;5037817;28;20210;-76
2023/02/06 10:21:30;;;;;;;65.78;25.27;;;2.20;99.90;;;;;;5025740;28;20132;-75
2023/02/06 10:24:20;;;;;;;72.90;25.73;;;2.30;99.90;;;;;;5026014;28;20568;-75
2023/02/06 10:26:50;;;;;;;85.90;26.48;;;2.40;99.90;;;;;;5045694;28;22274;-76
2023/02/06 10:29:26;;;;;;;75.43;28.02;;;2.70;99.90;;;;;;5050649;28;20169;-76
2023/02/06 10:32:00;;;;;;;62.92;26.48;;;2.70;99.90;;;;;;5041190;28;20509;-75
2023/02/06 10:34:36;;;;;;;79.85;25.90;;;2.70;99.90;;;;;;5048042;28;20052;-76
2023/02/06 10:37:19;;;;;;;61.15;26.42;;;2.80;99.90;;;;;;5050969;28;20033;-76
2023/02/06 10:39:45;;;;;;;60.85;27.70;;;2.90;99.90;;;;;;5034389;28;20493;-76
2023/02/06 10:42:21;;;;;;;67.53;27.65;;;2.90;99.90;;;;;;5047204;28;20044;-76
2023/02/06 10:45:11;;;;;;;68.47;27.60;;;3.00;99.90;;;;;;5043052;28;20148;-76
2023/02/06 10:47:53;;;;;;;80.15;26.73;;;2.80;99.90;;;;;;5044038;28;20072;-75
2023/02/06 10:50:53;;;;;;;54.88;26.38;;;2.90;99.90;;;;;;5045201;28;20119;-77
2023/02/06 10:53:25;;;;;;;69.28;28.58;;;2.60;99.90;;;;;;5012648;28;20673;-77
2023/02/06 10:55:56;;;;;;;130.45;32.50;;;2.50;99.90;;;;;;5034827;28;20762;-78
2023/02/06 10:58:26;;;;;;;95.32;30.85;;;2.60;99.90;;;;;;5042257;28;20649;-77
2023/02/06 11:00:54;;;;;;;68.00;27.17;;;2.80;99.90;;;;;;5041901;28;20597;-77
2023/02/06 11:03:27;;;;;;;72.38;29.73;;;2.60;99.90;;;;;;5047485;28;20059;-77
2023/02/06 11:05:55;;;;;;;84.85;30.75;;;2.70;99.90;;;;;;5029135;28;20076;-75
2023/02/06 11:08:37;;;;;;;85.00;29.42;;;2.70;99.90;;;;;;5043761;28;20053;-76
2023/02/06 11:11:24;;;;;;;66.85;28.77;;;2.80;99.90;;;;;;5041367;28;20040;-76
2023/02/06 11:13:58;;;;;;;67.13;29.50;;;3.00;99.90;;;;;;5044127;28;20057;-77
2023/02/06 11:16:27;;;;;;;59.50;27.00;;;3.20;99.90;;;;;;5043390;28;20052;-77
2023/02/06 11:18:58;;;;;;;67.75;32.90;;;3.30;99.90;;;;;;5035255;28;20040;-77
2023/02/06 11:21:40;;;;;;;74.50;31.27;;;3.20;99.90;;;;;;5030256;28;20065;-77
2023/02/06 11:24:13;;;;;;;58.95;26.90;;;3.10;99.90;;;;;;5025902;28;20049;-77
2023/02/06 11:26:41;;;;;;;58.30;27.52;;;3.20;99.90;;;;;;5043617;28;20095;-77
2023/02/06 11:29:43;;;;;;;50.67;28.42;;;3.40;99.90;;;;;;5032294;28;20107;-77
2023/02/06 11:32:36;;;;;;;44.90;26.52;;;3.30;99.90;;;;;;5020517;28;20148;-76
2023/02/06 11:35:23;;;;;;;64.63;28.80;;;3.30;99.90;;;;;;5057918;28;20045;-76
2023/02/06 11:38:02;;;;;;;55.25;27.02;;;3.40;99.90;;;;;;5047828;28;20079;-78
2023/02/06 11:40:31;;;;;;;52.80;27.00;;;3.50;99.90;;;;;;5037240;28;20132;-77
2023/02/06 11:43:19;;;;;;;43.55;28.35;;;3.70;99.90;;;;;;5039376;28;20103;-77
2023/02/06 11:45:48;;;;;;;56.63;29.52;;;3.80;99.90;;;;;;5041849;28;20128;-78
2023/02/06 11:48:35;;;;;;;52.65;29.15;;;3.70;99.90;;;;;;5039820;28;20052;-75
2023/02/06 11:51:02;;;;;;;52.90;27.60;;;3.90;99.90;;;;;;5042708;28;20095;-76
2023/02/06 11:53:29;;;;;;;50.63;31.27;;;3.90;99.90;;;;;;5052126;28;20045;-75
2023/02/06 11:56:15;;;;;;;52.38;29.10;;;3.90;99.90;;;;;;5039921;28;20052;-76
2023/02/06 11:58:43;;;;;;;43.00;26.00;;;4.10;99.90;;;;;;5037205;28;20055;-75
2023/02/06 12:01:20;;;;;;;52.50;27.67;;;4.20;99.90;;;;;;5043820;28;20055;-75
2023/02/06 12:03:50;;;;;;;53.20;28.48;;;4.40;99.90;;;;;;5047377;28;20041;-74
2023/02/06 12:06:28;;;;;;;60.67;31.20;;;4.60;99.90;;;;;;5047517;28;20045;-74
2023/02/06 12:08:58;;;;;;;65.50;31.27;;;4.70;99.90;;;;;;5044924;28;20077;-75
2023/02/06 12:12:03;;;;;;;62.35;32.78;;;4.60;99.90;;;;;;5029263;28;20658;-75
2023/02/06 12:14:44;;;;;;;61.45;29.63;;;4.70;99.90;;;;;;5000457;28;20059;-75
2023/02/06 12:17:31;;;;;;;54.33;29.77;;;4.70;99.90;;;;;;5020027;28;20052;-77
2023/02/06 12:20:11;;;;;;;47.97;29.27;;;4.80;99.90;;;;;;5044734;28;20476;-77
2023/02/06 12:22:46;;;;;;;58.30;30.02;;;4.70;99.90;;;;;;5024025;28;20045;-77
2023/02/06 12:25:21;;;;;;;;;;;4.80;99.90;;;;;;5033916;28;20080;-78
2023/02/06 12:27:50;;;;;;;53.10;28.92;;;4.80;99.90;;;;;;5043704;28;19920;-75
2023/02/06 12:30:37;;;;;;;52.10;27.98;;;4.60;99.90;;;;;;5038836;28;20498;-75
2023/02/06 12:33:17;;;;;;;57.70;29.63;;;4.80;99.90;;;;;;5042724;28;20041;-75
2023/02/06 12:36:06;;;;;;;51.97;29.65;;;4.80;99.90;;;;;;5047261;28;20093;-75
2023/02/06 12:38:40;;;;;;;50.50;28.48;;;4.90;99.90;;;;;;5045608;28;20068;-75
2023/02/06 12:41:52;;;;;;;52.38;30.13;;;5.00;99.90;;;;;;5043941;28;20059;-75
2023/02/06 12:44:29;;;;;;;48.63;28.55;;;4.90;99.90;;;;;;5035382;28;20132;-75
2023/02/06 12:47:23;;;;;;;58.53;28.20;;;4.90;99.90;;;;;;5041831;28;20038;-76
2023/02/06 12:50:23;;;;;;;44.25;26.50;;;5.00;99.90;;;;;;5043798;28;20052;-76
2023/02/06 12:52:53;;;;;;;44.78;28.70;;;4.80;99.90;;;;;;5018550;28;20041;-75
2023/02/06 12:55:26;;;;;;;48.10;28.83;;;4.80;99.90;;;;;;5038970;28;20422;-76
2023/02/06 12:57:54;;;;;;;47.00;28.10;;;4.80;99.90;;;;;;5045009;28;20048;-76
2023/02/06 13:00:37;;;;;;;54.03;30.70;;;4.90;99.90;;;;;;5039972;28;20045;-76